sensor_id;sensor_type;location;lat;lon;timestamp;P1;durP1;ratioP1;P2;durP2;ratioP2
33162;SDS011;29282;45.656;11.302;2023-09-19T00:00:45;5.72;;;4.57;;
33162;SDS011;29282;45.656;11.302;2023-09-19T00:03:12;6.22;;;4.82;;
33162;SDS011;29282;45.656;11.302;2023-09-19T00:05:38;5.88;;;4.20;;
33162;SDS011;29282;45.656;11.302;2023-09-19T00:08:04;5.80;;;4.35;;
33162;SDS011;29282;45.656;11.302;2023-09-19T00:10:31;6.00;;;4.75;;
33162;SDS011;29282;45.656;11.302;2023-09-19T00:12:59;5.55;;;4.47;;
33162;SDS011;29282;45.656;11.302;2023-09-19T00:15:30;5.70;;;4.60;;
33162;SDS011;29282;45.656;11.302;2023-09-19T00:18:00;6.85;;;4.50;;
33162;SDS011;29282;45.656;11.302;2023-09-19T00:20:26;5.97;;;4.22;;
33162;SDS011;29282;45.656;11.302;2023-09-19T00:22:51;6.18;;;4.47;;
33162;SDS011;29282;45.656;11.302;2023-09-19T00:25:18;5.70;;;4.75;;
33162;SDS011;29282;45.656;11.302;2023-09-19T00:27:45;5.45;;;4.45;;
33162;SDS011;29282;45.656;11.302;2023-09-19T00:30:16;6.25;;;4.57;;
33162;SDS011;29282;45.656;11.302;2023-09-19T00:32:46;4.97;;;4.13;;
33162;SDS011;29282;45.656;11.302;2023-09-19T00:35:13;5.63;;;4.68;;
33162;SDS011;29282;45.656;11.302;2023-09-19T00:37:40;5.82;;;4.35;;
33162;SDS011;29282;45.656;11.302;2023-09-19T00:40:09;5.70;;;4.15;;
33162;SDS011;29282;45.656;11.302;2023-09-19T00:42:46;6.00;;;4.47;;
33162;SDS011;29282;45.656;11.302;2023-09-19T00:45:13;4.68;;;4.22;;
33162;SDS011;29282;45.656;11.302;2023-09-19T00:47:47;4.47;;;4.07;;
33162;SDS011;29282;45.656;11.302;2023-09-19T00:50:14;5.63;;;3.85;;
33162;SDS011;29282;45.656;11.302;2023-09-19T00:52:42;5.20;;;4.18;;
33162;SDS011;29282;45.656;11.302;2023-09-19T00:55:09;6.28;;;4.43;;
33162;SDS011;29282;45.656;11.302;2023-09-19T00:57:36;7.38;;;4.32;;
33162;SDS011;29282;45.656;11.302;2023-09-19T01:00:03;4.50;;;3.90;;
33162;SDS011;29282;45.656;11.302;2023-09-19T01:02:31;4.95;;;3.95;;
33162;SDS011;29282;45.656;11.302;2023-09-19T01:04:57;4.38;;;3.83;;
33162;SDS011;29282;45.656;11.302;2023-09-19T01:07:23;4.72;;;3.95;;
33162;SDS011;29282;45.656;11.302;2023-09-19T01:09:49;5.15;;;3.92;;
33162;SDS011;29282;45.656;11.302;2023-09-19T01:12:17;4.60;;;3.80;;
33162;SDS011;29282;45.656;11.302;2023-09-19T01:14:55;4.63;;;3.78;;
33162;SDS011;29282;45.656;11.302;2023-09-19T01:17:30;4.50;;;3.85;;
33162;SDS011;29282;45.656;11.302;2023-09-19T01:20:03;5.28;;;4.22;;
33162;SDS011;29282;45.656;11.302;2023-09-19T01:31:06;5.10;;;3.88;;
33162;SDS011;29282;45.656;11.302;2023-09-19T01:36:32;5.10;;;3.88;;
33162;SDS011;29282;45.656;11.302;2023-09-19T01:39:04;4.75;;;3.60;;
33162;SDS011;29282;45.656;11.302;2023-09-19T01:44:47;4.38;;;3.72;;
33162;SDS011;29282;45.656;11.302;2023-09-19T01:50:03;4.00;;;3.55;;
33162;SDS011;29282;45.656;11.302;2023-09-19T01:52:38;4.10;;;3.70;;
33162;SDS011;29282;45.656;11.302;2023-09-19T01:55:17;4.65;;;3.45;;
33162;SDS011;29282;45.656;11.302;2023-09-19T01:57:48;4.28;;;3.88;;
33162;SDS011;29282;45.656;11.302;2023-09-19T02:00:19;5.32;;;3.70;;
33162;SDS011;29282;45.656;11.302;2023-09-19T02:02:48;4.78;;;3.50;;
33162;SDS011;29282;45.656;11.302;2023-09-19T02:05:24;4.05;;;3.30;;
33162;SDS011;29282;45.656;11.302;2023-09-19T02:07:52;3.70;;;3.28;;
33162;SDS011;29282;45.656;11.302;2023-09-19T02:10:21;5.57;;;3.67;;
33162;SDS011;29282;45.656;11.302;2023-09-19T02:12:49;4.25;;;3.53;;
33162;SDS011;29282;45.656;11.302;2023-09-19T02:15:16;5.72;;;3.67;;
33162;SDS011;29282;45.656;11.302;2023-09-19T02:17:42;4.57;;;3.53;;
33162;SDS011;29282;45.656;11.302;2023-09-19T02:20:09;4.50;;;3.65;;
33162;SDS011;29282;45.656;11.302;2023-09-19T02:22:36;4.80;;;3.22;;
33162;SDS011;29282;45.656;11.302;2023-09-19T02:25:02;4.22;;;3.65;;
33162;SDS011;29282;45.656;11.302;2023-09-19T02:27:30;5.05;;;3.35;;
33162;SDS011;29282;45.656;11.302;2023-09-19T02:29:56;5.40;;;3.60;;
33162;SDS011;29282;45.656;11.302;2023-09-19T02:32:21;3.90;;;3.42;;
33162;SDS011;29282;45.656;11.302;2023-09-19T02:34:48;4.30;;;3.58;;
33162;SDS011;29282;45.656;11.302;2023-09-19T02:37:13;5.45;;;3.70;;
33162;SDS011;29282;45.656;11.302;2023-09-19T02:39:41;5.43;;;3.63;;
33162;SDS011;29282;45.656;11.302;2023-09-19T02:42:07;3.70;;;3.38;;
33162;SDS011;29282;45.656;11.302;2023-09-19T02:44:32;3.92;;;3.63;;
33162;SDS011;29282;45.656;11.302;2023-09-19T02:46:59;4.70;;;3.30;;
33162;SDS011;29282;45.656;11.302;2023-09-19T02:49:24;3.85;;;3.45;;
33162;SDS011;29282;45.656;11.302;2023-09-19T02:51:50;3.38;;;3.03;;
33162;SDS011;29282;45.656;11.302;2023-09-19T02:54:16;4.70;;;3.20;;
33162;SDS011;29282;45.656;11.302;2023-09-19T02:56:42;6.30;;;3.28;;
33162;SDS011;29282;45.656;11.302;2023-09-19T02:59:08;3.80;;;3.40;;
33162;SDS011;29282;45.656;11.302;2023-09-19T03:01:38;4.05;;;3.33;;
33162;SDS011;29282;45.656;11.302;2023-09-19T03:04:04;5.60;;;3.28;;
33162;SDS011;29282;45.656;11.302;2023-09-19T03:06:33;3.60;;;3.10;;
33162;SDS011;29282;45.656;11.302;2023-09-19T03:08:59;4.53;;;3.40;;
33162;SDS011;29282;45.656;11.302;2023-09-19T03:11:25;4.65;;;3.35;;
33162;SDS011;29282;45.656;11.302;2023-09-19T03:13:54;4.95;;;3.53;;
33162;SDS011;29282;45.656;11.302;2023-09-19T03:16:20;4.15;;;3.42;;
33162;SDS011;29282;45.656;11.302;2023-09-19T03:18:50;4.57;;;2.97;;
33162;SDS011;29282;45.656;11.302;2023-09-19T03:21:16;4.95;;;3.08;;
33162;SDS011;29282;45.656;11.302;2023-09-19T03:23:42;3.53;;;3.08;;
33162;SDS011;29282;45.656;11.302;2023-09-19T03:26:11;4.38;;;3.38;;
33162;SDS011;29282;45.656;11.302;2023-09-19T03:28:38;4.00;;;2.95;;
33162;SDS011;29282;45.656;11.302;2023-09-19T03:31:06;4.22;;;2.75;;
33162;SDS011;29282;45.656;11.302;2023-09-19T03:33:32;4.28;;;2.90;;
33162;SDS011;29282;45.656;11.302;2023-09-19T03:35:59;3.65;;;2.97;;
33162;SDS011;29282;45.656;11.302;2023-09-19T03:38:28;4.35;;;3.08;;
33162;SDS011;29282;45.656;11.302;2023-09-19T03:40:54;4.15;;;3.38;;
33162;SDS011;29282;45.656;11.302;2023-09-19T03:43:20;4.47;;;3.30;;
33162;SDS011;29282;45.656;11.302;2023-09-19T03:45:45;3.10;;;2.80;;
33162;SDS011;29282;45.656;11.302;2023-09-19T03:48:14;3.58;;;3.00;;
33162;SDS011;29282;45.656;11.302;2023-09-19T03:50:40;4.22;;;3.00;;
33162;SDS011;29282;45.656;11.302;2023-09-19T03:53:05;3.33;;;2.72;;
33162;SDS011;29282;45.656;11.302;2023-09-19T03:55:32;4.50;;;3.60;;
33162;SDS011;29282;45.656;11.302;2023-09-19T03:58:00;3.22;;;2.85;;
33162;SDS011;29282;45.656;11.302;2023-09-19T04:00:29;3.45;;;2.75;;
33162;SDS011;29282;45.656;11.302;2023-09-19T04:02:55;4.70;;;2.80;;
33162;SDS011;29282;45.656;11.302;2023-09-19T04:05:23;3.80;;;2.88;;
33162;SDS011;29282;45.656;11.302;2023-09-19T04:07:49;3.53;;;2.80;;
33162;SDS011;29282;45.656;11.302;2023-09-19T04:10:18;3.17;;;2.88;;
33162;SDS011;29282;45.656;11.302;2023-09-19T04:12:50;3.75;;;3.10;;
33162;SDS011;29282;45.656;11.302;2023-09-19T04:15:20;5.32;;;3.20;;
33162;SDS011;29282;45.656;11.302;2023-09-19T04:17:48;2.92;;;2.55;;
33162;SDS011;29282;45.656;11.302;2023-09-19T04:20:17;4.15;;;2.95;;
33162;SDS011;29282;45.656;11.302;2023-09-19T04:22:44;3.05;;;2.70;;
33162;SDS011;29282;45.656;11.302;2023-09-19T04:25:11;3.03;;;2.60;;
33162;SDS011;29282;45.656;11.302;2023-09-19T04:27:36;3.25;;;2.78;;
33162;SDS011;29282;45.656;11.302;2023-09-19T04:30:06;3.55;;;3.00;;
33162;SDS011;29282;45.656;11.302;2023-09-19T04:32:36;3.78;;;2.80;;
33162;SDS011;29282;45.656;11.302;2023-09-19T04:35:04;2.90;;;2.60;;
33162;SDS011;29282;45.656;11.302;2023-09-19T04:37:34;3.40;;;2.78;;
33162;SDS011;29282;45.656;11.302;2023-09-19T04:40:03;3.92;;;2.80;;
33162;SDS011;29282;45.656;11.302;2023-09-19T04:42:31;3.42;;;2.55;;
33162;SDS011;29282;45.656;11.302;2023-09-19T04:44:56;3.45;;;2.78;;
33162;SDS011;29282;45.656;11.302;2023-09-19T04:47:21;4.22;;;2.75;;
33162;SDS011;29282;45.656;11.302;2023-09-19T04:49:47;3.22;;;2.65;;
33162;SDS011;29282;45.656;11.302;2023-09-19T04:52:13;4.75;;;2.72;;
33162;SDS011;29282;45.656;11.302;2023-09-19T04:54:40;3.58;;;2.95;;
33162;SDS011;29282;45.656;11.302;2023-09-19T04:57:06;3.03;;;2.60;;
33162;SDS011;29282;45.656;11.302;2023-09-19T04:59:32;3.90;;;2.58;;
33162;SDS011;29282;45.656;11.302;2023-09-19T05:01:58;3.05;;;2.55;;
33162;SDS011;29282;45.656;11.302;2023-09-19T05:04:24;3.63;;;2.85;;
33162;SDS011;29282;45.656;11.302;2023-09-19T05:06:49;3.83;;;2.60;;
33162;SDS011;29282;45.656;11.302;2023-09-19T05:09:15;2.85;;;2.42;;
33162;SDS011;29282;45.656;11.302;2023-09-19T05:11:45;4.22;;;2.75;;
33162;SDS011;29282;45.656;11.302;2023-09-19T05:14:14;4.30;;;2.45;;
33162;SDS011;29282;45.656;11.302;2023-09-19T05:16:39;2.40;;;2.20;;
33162;SDS011;29282;45.656;11.302;2023-09-19T05:19:05;3.13;;;2.60;;
33162;SDS011;29282;45.656;11.302;2023-09-19T05:21:31;2.60;;;2.40;;
33162;SDS011;29282;45.656;11.302;2023-09-19T05:23:58;4.22;;;2.63;;
33162;SDS011;29282;45.656;11.302;2023-09-19T05:26:23;4.38;;;2.65;;
33162;SDS011;29282;45.656;11.302;2023-09-19T05:28:49;3.28;;;2.65;;
33162;SDS011;29282;45.656;11.302;2023-09-19T05:31:15;3.05;;;2.28;;
33162;SDS011;29282;45.656;11.302;2023-09-19T05:33:41;2.70;;;2.30;;
33162;SDS011;29282;45.656;11.302;2023-09-19T05:36:07;2.83;;;2.53;;
33162;SDS011;29282;45.656;11.302;2023-09-19T05:38:35;3.05;;;2.67;;
33162;SDS011;29282;45.656;11.302;2023-09-19T05:41:02;3.97;;;2.63;;
33162;SDS011;29282;45.656;11.302;2023-09-19T05:43:27;5.72;;;2.70;;
33162;SDS011;29282;45.656;11.302;2023-09-19T05:45:53;3.55;;;2.25;;
33162;SDS011;29282;45.656;11.302;2023-09-19T05:48:21;2.80;;;2.42;;
33162;SDS011;29282;45.656;11.302;2023-09-19T05:50:47;4.00;;;2.70;;
33162;SDS011;29282;45.656;11.302;2023-09-19T05:53:14;4.60;;;2.47;;
33162;SDS011;29282;45.656;11.302;2023-09-19T05:55:40;3.28;;;2.35;;
33162;SDS011;29282;45.656;11.302;2023-09-19T05:58:06;2.80;;;2.40;;
33162;SDS011;29282;45.656;11.302;2023-09-19T06:00:32;3.25;;;2.88;;
33162;SDS011;29282;45.656;11.302;2023-09-19T06:02:58;3.10;;;2.70;;
33162;SDS011;29282;45.656;11.302;2023-09-19T06:05:24;3.22;;;2.78;;
33162;SDS011;29282;45.656;11.302;2023-09-19T06:07:57;3.70;;;2.97;;
33162;SDS011;29282;45.656;11.302;2023-09-19T06:10:25;3.65;;;2.88;;
33162;SDS011;29282;45.656;11.302;2023-09-19T06:12:52;3.88;;;2.80;;
33162;SDS011;29282;45.656;11.302;2023-09-19T06:15:18;6.95;;;3.05;;
33162;SDS011;29282;45.656;11.302;2023-09-19T06:17:50;7.70;;;3.30;;
33162;SDS011;29282;45.656;11.302;2023-09-19T06:22:50;4.28;;;3.15;;
33162;SDS011;29282;45.656;11.302;2023-09-19T06:25:16;4.07;;;3.20;;
33162;SDS011;29282;45.656;11.302;2023-09-19T06:27:48;4.80;;;3.25;;
33162;SDS011;29282;45.656;11.302;2023-09-19T06:30:17;4.00;;;2.95;;
33162;SDS011;29282;45.656;11.302;2023-09-19T06:32:43;7.40;;;3.25;;
33162;SDS011;29282;45.656;11.302;2023-09-19T06:35:09;5.25;;;3.33;;
33162;SDS011;29282;45.656;11.302;2023-09-19T06:37:39;4.75;;;2.88;;
33162;SDS011;29282;45.656;11.302;2023-09-19T06:40:08;5.38;;;3.10;;
33162;SDS011;29282;45.656;11.302;2023-09-19T06:42:42;5.82;;;3.08;;
33162;SDS011;29282;45.656;11.302;2023-09-19T06:45:13;4.35;;;2.65;;
33162;SDS011;29282;45.656;11.302;2023-09-19T06:47:46;6.95;;;2.78;;
33162;SDS011;29282;45.656;11.302;2023-09-19T06:50:21;7.15;;;2.70;;
33162;SDS011;29282;45.656;11.302;2023-09-19T06:52:48;5.13;;;3.08;;
33162;SDS011;29282;45.656;11.302;2023-09-19T06:55:18;8.88;;;2.95;;
33162;SDS011;29282;45.656;11.302;2023-09-19T06:57:45;6.28;;;2.80;;
33162;SDS011;29282;45.656;11.302;2023-09-19T07:00:11;5.55;;;2.67;;
33162;SDS011;29282;45.656;11.302;2023-09-19T07:02:44;7.80;;;2.80;;
33162;SDS011;29282;45.656;11.302;2023-09-19T07:05:10;8.05;;;3.08;;
33162;SDS011;29282;45.656;11.302;2023-09-19T07:07:36;9.35;;;2.70;;
33162;SDS011;29282;45.656;11.302;2023-09-19T07:10:02;7.97;;;2.70;;
33162;SDS011;29282;45.656;11.302;2023-09-19T07:12:30;8.32;;;2.70;;
33162;SDS011;29282;45.656;11.302;2023-09-19T07:14:57;8.30;;;3.03;;
33162;SDS011;29282;45.656;11.302;2023-09-19T07:17:23;11.80;;;3.63;;
33162;SDS011;29282;45.656;11.302;2023-09-19T07:19:49;10.23;;;3.38;;
33162;SDS011;29282;45.656;11.302;2023-09-19T07:22:15;9.73;;;3.25;;
33162;SDS011;29282;45.656;11.302;2023-09-19T07:24:41;13.13;;;3.55;;
33162;SDS011;29282;45.656;11.302;2023-09-19T07:27:06;11.55;;;3.13;;
33162;SDS011;29282;45.656;11.302;2023-09-19T07:29:35;10.10;;;3.10;;
33162;SDS011;29282;45.656;11.302;2023-09-19T07:32:00;9.15;;;3.20;;
33162;SDS011;29282;45.656;11.302;2023-09-19T07:34:26;9.15;;;2.97;;
33162;SDS011;29282;45.656;11.302;2023-09-19T07:36:51;8.13;;;3.00;;
33162;SDS011;29282;45.656;11.302;2023-09-19T07:39:20;10.88;;;3.47;;
33162;SDS011;29282;45.656;11.302;2023-09-19T07:41:45;8.82;;;3.60;;
33162;SDS011;29282;45.656;11.302;2023-09-19T07:44:11;8.43;;;3.15;;
33162;SDS011;29282;45.656;11.302;2023-09-19T07:46:36;11.32;;;3.17;;
33162;SDS011;29282;45.656;11.302;2023-09-19T07:49:02;14.50;;;3.92;;
33162;SDS011;29282;45.656;11.302;2023-09-19T07:51:27;8.40;;;3.47;;
33162;SDS011;29282;45.656;11.302;2023-09-19T07:53:53;10.52;;;3.95;;
33162;SDS011;29282;45.656;11.302;2023-09-19T07:56:20;7.70;;;3.03;;
33162;SDS011;29282;45.656;11.302;2023-09-19T07:58:46;12.50;;;3.38;;
33162;SDS011;29282;45.656;11.302;2023-09-19T08:01:11;8.52;;;3.42;;
33162;SDS011;29282;45.656;11.302;2023-09-19T08:03:38;10.05;;;3.20;;
33162;SDS011;29282;45.656;11.302;2023-09-19T08:06:06;11.27;;;3.65;;
33162;SDS011;29282;45.656;11.302;2023-09-19T08:08:32;9.52;;;3.13;;
33162;SDS011;29282;45.656;11.302;2023-09-19T08:11:02;10.65;;;3.38;;
33162;SDS011;29282;45.656;11.302;2023-09-19T08:13:36;7.07;;;3.00;;
33162;SDS011;29282;45.656;11.302;2023-09-19T08:16:03;5.20;;;2.80;;
33162;SDS011;29282;45.656;11.302;2023-09-19T08:18:30;9.90;;;3.38;;
33162;SDS011;29282;45.656;11.302;2023-09-19T08:20:55;9.02;;;3.72;;
33162;SDS011;29282;45.656;11.302;2023-09-19T08:23:23;9.02;;;3.13;;
33162;SDS011;29282;45.656;11.302;2023-09-19T08:25:49;11.32;;;3.10;;
33162;SDS011;29282;45.656;11.302;2023-09-19T08:28:15;7.53;;;3.50;;
33162;SDS011;29282;45.656;11.302;2023-09-19T08:30:44;10.32;;;3.30;;
33162;SDS011;29282;45.656;11.302;2023-09-19T08:33:10;8.70;;;3.10;;
33162;SDS011;29282;45.656;11.302;2023-09-19T08:35:36;6.60;;;3.33;;
33162;SDS011;29282;45.656;11.302;2023-09-19T08:38:03;11.98;;;3.80;;
33162;SDS011;29282;45.656;11.302;2023-09-19T08:40:32;9.02;;;3.17;;
33162;SDS011;29282;45.656;11.302;2023-09-19T08:43:01;9.70;;;3.38;;
33162;SDS011;29282;45.656;11.302;2023-09-19T08:45:28;10.43;;;3.97;;
33162;SDS011;29282;45.656;11.302;2023-09-19T08:50:31;11.40;;;3.50;;
33162;SDS011;29282;45.656;11.302;2023-09-19T08:53:04;6.75;;;3.20;;
33162;SDS011;29282;45.656;11.302;2023-09-19T08:55:37;9.77;;;3.47;;
33162;SDS011;29282;45.656;11.302;2023-09-19T08:58:06;8.00;;;3.60;;
33162;SDS011;29282;45.656;11.302;2023-09-19T09:00:35;9.43;;;3.75;;
33162;SDS011;29282;45.656;11.302;2023-09-19T09:03:02;7.03;;;3.70;;
33162;SDS011;29282;45.656;11.302;2023-09-19T09:05:31;9.40;;;4.05;;
33162;SDS011;29282;45.656;11.302;2023-09-19T09:08:00;11.43;;;4.00;;
33162;SDS011;29282;45.656;11.302;2023-09-19T09:10:27;7.07;;;3.30;;
33162;SDS011;29282;45.656;11.302;2023-09-19T09:12:53;9.45;;;4.47;;
33162;SDS011;29282;45.656;11.302;2023-09-19T09:15:25;7.63;;;3.88;;
33162;SDS011;29282;45.656;11.302;2023-09-19T09:17:54;8.75;;;4.05;;
33162;SDS011;29282;45.656;11.302;2023-09-19T09:20:20;8.15;;;3.67;;
33162;SDS011;29282;45.656;11.302;2023-09-19T09:22:52;7.85;;;3.88;;
33162;SDS011;29282;45.656;11.302;2023-09-19T09:25:19;8.38;;;4.10;;
33162;SDS011;29282;45.656;11.302;2023-09-19T09:28:06;7.32;;;3.78;;
33162;SDS011;29282;45.656;11.302;2023-09-19T09:30:36;6.60;;;4.40;;
33162;SDS011;29282;45.656;11.302;2023-09-19T09:33:11;10.15;;;4.05;;
33162;SDS011;29282;45.656;11.302;2023-09-19T09:35:48;7.57;;;4.90;;
33162;SDS011;29282;45.656;11.302;2023-09-19T09:38:42;9.77;;;4.80;;
33162;SDS011;29282;45.656;11.302;2023-09-19T09:41:10;13.20;;;4.75;;
33162;SDS011;29282;45.656;11.302;2023-09-19T09:43:40;9.75;;;5.22;;
33162;SDS011;29282;45.656;11.302;2023-09-19T09:46:18;14.93;;;5.75;;
33162;SDS011;29282;45.656;11.302;2023-09-19T09:51:49;12.32;;;5.40;;
33162;SDS011;29282;45.656;11.302;2023-09-19T09:54:27;9.75;;;5.30;;
33162;SDS011;29282;45.656;11.302;2023-09-19T09:57:00;8.13;;;4.53;;
33162;SDS011;29282;45.656;11.302;2023-09-19T09:59:54;13.77;;;5.30;;
33162;SDS011;29282;45.656;11.302;2023-09-19T10:02:30;12.75;;;5.63;;
33162;SDS011;29282;45.656;11.302;2023-09-19T10:05:20;8.80;;;4.63;;
33162;SDS011;29282;45.656;11.302;2023-09-19T10:07:52;9.77;;;5.00;;
33162;SDS011;29282;45.656;11.302;2023-09-19T10:10:43;10.88;;;5.50;;
33162;SDS011;29282;45.656;11.302;2023-09-19T10:13:19;14.35;;;5.45;;
33162;SDS011;29282;45.656;11.302;2023-09-19T10:15:50;8.95;;;5.60;;
33162;SDS011;29282;45.656;11.302;2023-09-19T10:18:25;11.38;;;5.55;;
33162;SDS011;29282;45.656;11.302;2023-09-19T10:20:53;12.90;;;5.75;;
33162;SDS011;29282;45.656;11.302;2023-09-19T10:23:20;9.90;;;5.28;;
33162;SDS011;29282;45.656;11.302;2023-09-19T10:25:51;8.35;;;4.70;;
33162;SDS011;29282;45.656;11.302;2023-09-19T10:28:17;7.53;;;5.28;;
33162;SDS011;29282;45.656;11.302;2023-09-19T10:30:53;11.20;;;5.28;;
33162;SDS011;29282;45.656;11.302;2023-09-19T10:33:20;10.95;;;5.20;;
33162;SDS011;29282;45.656;11.302;2023-09-19T10:35:47;10.38;;;4.88;;
33162;SDS011;29282;45.656;11.302;2023-09-19T10:38:17;10.90;;;4.82;;
33162;SDS011;29282;45.656;11.302;2023-09-19T10:40:48;9.60;;;5.22;;
33162;SDS011;29282;45.656;11.302;2023-09-19T10:43:16;6.75;;;4.80;;
33162;SDS011;29282;45.656;11.302;2023-09-19T10:45:43;11.13;;;4.95;;
33162;SDS011;29282;45.656;11.302;2023-09-19T10:48:12;10.80;;;4.80;;
33162;SDS011;29282;45.656;11.302;2023-09-19T10:50:46;8.48;;;5.00;;
33162;SDS011;29282;45.656;11.302;2023-09-19T10:53:24;10.98;;;4.82;;
33162;SDS011;29282;45.656;11.302;2023-09-19T10:55:55;9.50;;;4.93;;
33162;SDS011;29282;45.656;11.302;2023-09-19T10:58:28;7.72;;;4.68;;
33162;SDS011;29282;45.656;11.302;2023-09-19T11:00:58;10.18;;;5.35;;
33162;SDS011;29282;45.656;11.302;2023-09-19T11:03:43;8.88;;;4.57;;
33162;SDS011;29282;45.656;11.302;2023-09-19T11:06:16;9.85;;;4.28;;
33162;SDS011;29282;45.656;11.302;2023-09-19T11:30:50;8.88;;;4.63;;
33162;SDS011;29282;45.656;11.302;2023-09-19T11:33:32;9.63;;;4.70;;
33162;SDS011;29282;45.656;11.302;2023-09-19T11:36:17;9.73;;;5.15;;
33162;SDS011;29282;45.656;11.302;2023-09-19T11:46:29;12.48;;;6.15;;
33162;SDS011;29282;45.656;11.302;2023-09-19T11:49:04;13.63;;;6.85;;
33162;SDS011;29282;45.656;11.302;2023-09-19T11:51:40;12.05;;;6.70;;
33162;SDS011;29282;45.656;11.302;2023-09-19T11:54:10;12.15;;;6.65;;
33162;SDS011;29282;45.656;11.302;2023-09-19T11:56:53;12.00;;;7.05;;
33162;SDS011;29282;45.656;11.302;2023-09-19T11:59:26;8.77;;;6.40;;
33162;SDS011;29282;45.656;11.302;2023-09-19T12:02:00;9.50;;;6.05;;
33162;SDS011;29282;45.656;11.302;2023-09-19T12:07:08;10.15;;;5.65;;
33162;SDS011;29282;45.656;11.302;2023-09-19T12:14:56;9.50;;;6.07;;
33162;SDS011;29282;45.656;11.302;2023-09-19T12:17:24;12.82;;;5.90;;
33162;SDS011;29282;45.656;11.302;2023-09-19T12:20:09;14.80;;;6.57;;
33162;SDS011;29282;45.656;11.302;2023-09-19T12:22:39;12.93;;;6.05;;
33162;SDS011;29282;45.656;11.302;2023-09-19T12:25:09;12.18;;;6.55;;
33162;SDS011;29282;45.656;11.302;2023-09-19T12:27:46;10.90;;;6.63;;
33162;SDS011;29282;45.656;11.302;2023-09-19T12:30:16;10.32;;;6.38;;
33162;SDS011;29282;45.656;11.302;2023-09-19T12:32:46;12.07;;;5.65;;
33162;SDS011;29282;45.656;11.302;2023-09-19T12:35:31;11.30;;;5.65;;
33162;SDS011;29282;45.656;11.302;2023-09-19T12:38:00;11.05;;;5.63;;
33162;SDS011;29282;45.656;11.302;2023-09-19T12:40:26;11.35;;;5.90;;
33162;SDS011;29282;45.656;11.302;2023-09-19T12:42:58;9.32;;;5.85;;
33162;SDS011;29282;45.656;11.302;2023-09-19T12:45:24;12.82;;;6.05;;
33162;SDS011;29282;45.656;11.302;2023-09-19T12:51:10;12.43;;;5.65;;
33162;SDS011;29282;45.656;11.302;2023-09-19T12:53:47;11.18;;;5.22;;
33162;SDS011;29282;45.656;11.302;2023-09-19T12:56:22;9.52;;;5.63;;
33162;SDS011;29282;45.656;11.302;2023-09-19T12:58:52;10.57;;;5.22;;
33162;SDS011;29282;45.656;11.302;2023-09-19T13:01:24;10.57;;;5.43;;
33162;SDS011;29282;45.656;11.302;2023-09-19T13:06:47;8.45;;;4.63;;
33162;SDS011;29282;45.656;11.302;2023-09-19T13:09:14;8.63;;;4.70;;
33162;SDS011;29282;45.656;11.302;2023-09-19T13:11:41;9.65;;;4.95;;
33162;SDS011;29282;45.656;11.302;2023-09-19T13:16:59;13.20;;;5.13;;
33162;SDS011;29282;45.656;11.302;2023-09-19T13:19:34;7.80;;;4.50;;
33162;SDS011;29282;45.656;11.302;2023-09-19T13:22:01;8.43;;;4.60;;
33162;SDS011;29282;45.656;11.302;2023-09-19T13:24:28;11.73;;;4.68;;
33162;SDS011;29282;45.656;11.302;2023-09-19T13:26:55;7.90;;;4.47;;
33162;SDS011;29282;45.656;11.302;2023-09-19T13:29:21;7.13;;;4.22;;
33162;SDS011;29282;45.656;11.302;2023-09-19T13:31:48;6.60;;;4.03;;
33162;SDS011;29282;45.656;11.302;2023-09-19T13:34:14;8.15;;;4.20;;
33162;SDS011;29282;45.656;11.302;2023-09-19T13:36:43;8.73;;;4.15;;
33162;SDS011;29282;45.656;11.302;2023-09-19T13:39:09;7.13;;;4.15;;
33162;SDS011;29282;45.656;11.302;2023-09-19T13:41:37;9.18;;;4.25;;
33162;SDS011;29282;45.656;11.302;2023-09-19T13:44:03;5.93;;;4.03;;
33162;SDS011;29282;45.656;11.302;2023-09-19T13:46:29;12.82;;;4.55;;
33162;SDS011;29282;45.656;11.302;2023-09-19T13:48:58;8.38;;;4.05;;
33162;SDS011;29282;45.656;11.302;2023-09-19T13:51:25;6.63;;;4.47;;
33162;SDS011;29282;45.656;11.302;2023-09-19T13:53:51;7.70;;;4.85;;
33162;SDS011;29282;45.656;11.302;2023-09-19T13:56:17;8.85;;;4.75;;
33162;SDS011;29282;45.656;11.302;2023-09-19T13:58:42;8.23;;;4.78;;
33162;SDS011;29282;45.656;11.302;2023-09-19T14:01:08;7.65;;;4.47;;
33162;SDS011;29282;45.656;11.302;2023-09-19T14:03:41;5.68;;;3.90;;
33162;SDS011;29282;45.656;11.302;2023-09-19T14:06:14;7.78;;;3.90;;
33162;SDS011;29282;45.656;11.302;2023-09-19T14:08:40;6.75;;;3.70;;
33162;SDS011;29282;45.656;11.302;2023-09-19T14:11:06;7.78;;;3.60;;
33162;SDS011;29282;45.656;11.302;2023-09-19T14:13:35;6.50;;;3.85;;
33162;SDS011;29282;45.656;11.302;2023-09-19T14:16:04;8.68;;;4.35;;
33162;SDS011;29282;45.656;11.302;2023-09-19T14:18:31;9.25;;;4.15;;
33162;SDS011;29282;45.656;11.302;2023-09-19T14:20:57;7.10;;;4.15;;
33162;SDS011;29282;45.656;11.302;2023-09-19T14:23:22;8.45;;;4.10;;
33162;SDS011;29282;45.656;11.302;2023-09-19T14:25:50;9.52;;;4.45;;
33162;SDS011;29282;45.656;11.302;2023-09-19T14:28:19;7.72;;;4.38;;
33162;SDS011;29282;45.656;11.302;2023-09-19T14:30:44;13.55;;;4.15;;
33162;SDS011;29282;45.656;11.302;2023-09-19T14:33:11;9.85;;;4.22;;
33162;SDS011;29282;45.656;11.302;2023-09-19T14:35:37;9.30;;;5.55;;
33162;SDS011;29282;45.656;11.302;2023-09-19T14:38:03;8.70;;;4.60;;
33162;SDS011;29282;45.656;11.302;2023-09-19T14:40:29;10.10;;;4.20;;
33162;SDS011;29282;45.656;11.302;2023-09-19T14:42:54;10.15;;;4.30;;
33162;SDS011;29282;45.656;11.302;2023-09-19T14:45:20;7.85;;;5.13;;
33162;SDS011;29282;45.656;11.302;2023-09-19T14:47:46;11.95;;;4.95;;
33162;SDS011;29282;45.656;11.302;2023-09-19T14:50:12;7.55;;;4.88;;
33162;SDS011;29282;45.656;11.302;2023-09-19T14:52:38;5.60;;;4.07;;
33162;SDS011;29282;45.656;11.302;2023-09-19T14:55:05;10.48;;;4.15;;
33162;SDS011;29282;45.656;11.302;2023-09-19T14:57:31;9.77;;;4.15;;
33162;SDS011;29282;45.656;11.302;2023-09-19T14:59:58;8.20;;;4.15;;
33162;SDS011;29282;45.656;11.302;2023-09-19T15:02:23;8.90;;;3.80;;
33162;SDS011;29282;45.656;11.302;2023-09-19T15:04:49;16.00;;;4.35;;
33162;SDS011;29282;45.656;11.302;2023-09-19T15:07:16;6.63;;;4.15;;
33162;SDS011;29282;45.656;11.302;2023-09-19T15:09:42;8.73;;;4.07;;
33162;SDS011;29282;45.656;11.302;2023-09-19T15:12:08;8.27;;;4.18;;
33162;SDS011;29282;45.656;11.302;2023-09-19T15:14:35;8.88;;;4.55;;
33162;SDS011;29282;45.656;11.302;2023-09-19T15:17:00;9.85;;;4.00;;
33162;SDS011;29282;45.656;11.302;2023-09-19T15:19:29;6.47;;;4.43;;
33162;SDS011;29282;45.656;11.302;2023-09-19T15:21:55;5.45;;;3.78;;
33162;SDS011;29282;45.656;11.302;2023-09-19T15:24:21;10.05;;;4.40;;
33162;SDS011;29282;45.656;11.302;2023-09-19T15:26:46;7.00;;;4.05;;
33162;SDS011;29282;45.656;11.302;2023-09-19T15:29:12;7.03;;;4.15;;
33162;SDS011;29282;45.656;11.302;2023-09-19T15:31:38;8.70;;;4.10;;
33162;SDS011;29282;45.656;11.302;2023-09-19T15:34:07;7.93;;;4.10;;
33162;SDS011;29282;45.656;11.302;2023-09-19T15:36:33;11.40;;;4.65;;
33162;SDS011;29282;45.656;11.302;2023-09-19T15:39:05;8.93;;;4.55;;
33162;SDS011;29282;45.656;11.302;2023-09-19T15:41:36;7.68;;;4.32;;
33162;SDS011;29282;45.656;11.302;2023-09-19T15:44:03;6.10;;;4.45;;
33162;SDS011;29282;45.656;11.302;2023-09-19T15:46:30;8.85;;;4.70;;
33162;SDS011;29282;45.656;11.302;2023-09-19T15:49:00;10.05;;;4.93;;
33162;SDS011;29282;45.656;11.302;2023-09-19T15:51:26;8.30;;;4.50;;